sensor_id;sensor_type;location;lat;lon;timestamp;temperature;humidity
12771;DHT22;6449;47.666;9.160;2023-05-14T00:02:52;10.80;99.90
12771;DHT22;6449;47.666;9.160;2023-05-14T00:07:46;10.60;99.90
12771;DHT22;6449;47.666;9.160;2023-05-14T00:12:41;10.70;99.90
12771;DHT22;6449;47.666;9.160;2023-05-14T00:17:35;10.90;99.90
12771;DHT22;6449;47.666;9.160;2023-05-14T00:22:29;11.00;99.90
12771;DHT22;6449;47.666;9.160;2023-05-14T00:27:22;11.10;99.90
12771;DHT22;6449;47.666;9.160;2023-05-14T00:32:17;11.10;99.90
12771;DHT22;6449;47.666;9.160;2023-05-14T00:37:10;11.10;99.90
12771;DHT22;6449;47.666;9.160;2023-05-14T00:42:04;11.00;99.90
12771;DHT22;6449;47.666;9.160;2023-05-14T00:46:57;11.00;99.90
12771;DHT22;6449;47.666;9.160;2023-05-14T00:51:53;11.10;99.90
12771;DHT22;6449;47.666;9.160;2023-05-14T00:56:47;11.20;99.90
12771;DHT22;6449;47.666;9.160;2023-05-14T01:01:40;11.30;99.90
12771;DHT22;6449;47.666;9.160;2023-05-14T01:06:40;11.20;99.90
12771;DHT22;6449;47.666;9.160;2023-05-14T01:11:51;11.30;99.90
12771;DHT22;6449;47.666;9.160;2023-05-14T01:16:55;11.30;99.90
12771;DHT22;6449;47.666;9.160;2023-05-14T01:21:51;11.20;99.90
12771;DHT22;6449;47.666;9.160;2023-05-14T01:26:45;11.30;99.90
12771;DHT22;6449;47.666;9.160;2023-05-14T01:31:39;11.30;99.90
12771;DHT22;6449;47.666;9.160;2023-05-14T01:36:36;11.40;99.90
12771;DHT22;6449;47.666;9.160;2023-05-14T01:41:33;11.40;99.90
12771;DHT22;6449;47.666;9.160;2023-05-14T01:46:30;11.40;99.90
12771;DHT22;6449;47.666;9.160;2023-05-14T01:51:24;11.50;99.90
12771;DHT22;6449;47.666;9.160;2023-05-14T01:56:18;11.50;99.90
12771;DHT22;6449;47.666;9.160;2023-05-14T02:01:13;11.50;99.90
12771;DHT22;6449;47.666;9.160;2023-05-14T02:06:07;11.50;99.90
12771;DHT22;6449;47.666;9.160;2023-05-14T02:11:00;11.50;99.90
12771;DHT22;6449;47.666;9.160;2023-05-14T02:15:53;11.50;99.90
12771;DHT22;6449;47.666;9.160;2023-05-14T02:20:48;11.40;99.90
12771;DHT22;6449;47.666;9.160;2023-05-14T02:25:43;11.30;99.90
12771;DHT22;6449;47.666;9.160;2023-05-14T02:30:36;11.40;99.90
12771;DHT22;6449;47.666;9.160;2023-05-14T02:35:29;11.50;99.90
12771;DHT22;6449;47.666;9.160;2023-05-14T02:40:24;11.50;99.90
12771;DHT22;6449;47.666;9.160;2023-05-14T02:45:18;11.40;99.90
12771;DHT22;6449;47.666;9.160;2023-05-14T02:50:12;11.50;99.90
12771;DHT22;6449;47.666;9.160;2023-05-14T02:55:06;11.50;99.90
12771;DHT22;6449;47.666;9.160;2023-05-14T03:00:02;11.50;99.90
12771;DHT22;6449;47.666;9.160;2023-05-14T03:04:56;11.50;99.90
12771;DHT22;6449;47.666;9.160;2023-05-14T03:09:49;11.50;99.90
12771;DHT22;6449;47.666;9.160;2023-05-14T03:14:42;11.40;99.90
12771;DHT22;6449;47.666;9.160;2023-05-14T03:19:37;11.30;99.90
12771;DHT22;6449;47.666;9.160;2023-05-14T03:24:30;11.30;99.90
12771;DHT22;6449;47.666;9.160;2023-05-14T03:29:23;11.40;99.90
12771;DHT22;6449;47.666;9.160;2023-05-14T03:34:17;11.30;99.90
12771;DHT22;6449;47.666;9.160;2023-05-14T03:39:11;11.30;99.90
12771;DHT22;6449;47.666;9.160;2023-05-14T03:44:06;11.20;99.90
12771;DHT22;6449;47.666;9.160;2023-05-14T03:48:59;11.20;99.90
12771;DHT22;6449;47.666;9.160;2023-05-14T03:53:52;11.20;99.90
12771;DHT22;6449;47.666;9.160;2023-05-14T03:58:47;11.20;99.90
12771;DHT22;6449;47.666;9.160;2023-05-14T04:03:40;11.30;99.90
12771;DHT22;6449;47.666;9.160;2023-05-14T04:08:34;11.20;99.90
12771;DHT22;6449;47.666;9.160;2023-05-14T04:13:27;11.20;99.90
12771;DHT22;6449;47.666;9.160;2023-05-14T04:18:22;11.20;99.90
12771;DHT22;6449;47.666;9.160;2023-05-14T04:23:15;11.30;99.90
12771;DHT22;6449;47.666;9.160;2023-05-14T04:28:09;11.30;99.90
12771;DHT22;6449;47.666;9.160;2023-05-14T04:33:02;11.40;99.90
12771;DHT22;6449;47.666;9.160;2023-05-14T04:37:57;11.30;99.90
12771;DHT22;6449;47.666;9.160;2023-05-14T04:42:50;11.30;99.90
12771;DHT22;6449;47.666;9.160;2023-05-14T04:47:45;11.40;99.90
12771;DHT22;6449;47.666;9.160;2023-05-14T04:52:38;11.40;99.90
12771;DHT22;6449;47.666;9.160;2023-05-14T04:57:36;11.30;99.90
12771;DHT22;6449;47.666;9.160;2023-05-14T05:02:29;11.30;99.90
12771;DHT22;6449;47.666;9.160;2023-05-14T05:07:22;11.40;99.90
12771;DHT22;6449;47.666;9.160;2023-05-14T05:12:15;11.30;99.90
12771;DHT22;6449;47.666;9.160;2023-05-14T05:17:10;11.20;99.90
12771;DHT22;6449;47.666;9.160;2023-05-14T05:22:04;11.20;99.90
12771;DHT22;6449;47.666;9.160;2023-05-14T05:26:57;11.20;99.90
12771;DHT22;6449;47.666;9.160;2023-05-14T05:31:51;11.20;99.90
12771;DHT22;6449;47.666;9.160;2023-05-14T05:36:46;11.30;99.90
12771;DHT22;6449;47.666;9.160;2023-05-14T05:41:39;11.30;99.90
12771;DHT22;6449;47.666;9.160;2023-05-14T05:46:32;11.30;99.90
12771;DHT22;6449;47.666;9.160;2023-05-14T05:51:26;11.20;99.90
12771;DHT22;6449;47.666;9.160;2023-05-14T05:56:20;11.20;99.90
12771;DHT22;6449;47.666;9.160;2023-05-14T06:01:14;11.20;99.90
12771;DHT22;6449;47.666;9.160;2023-05-14T06:06:07;11.30;99.90
12771;DHT22;6449;47.666;9.160;2023-05-14T06:11:00;11.50;99.90
12771;DHT22;6449;47.666;9.160;2023-05-14T06:15:55;11.60;99.90
12771;DHT22;6449;47.666;9.160;2023-05-14T06:20:48;11.70;99.90
12771;DHT22;6449;47.666;9.160;2023-05-14T06:25:41;11.60;99.90
12771;DHT22;6449;47.666;9.160;2023-05-14T06:30:35;11.50;99.90
12771;DHT22;6449;47.666;9.160;2023-05-14T06:35:29;11.50;99.90
12771;DHT22;6449;47.666;9.160;2023-05-14T06:40:23;11.60;99.90
12771;DHT22;6449;47.666;9.160;2023-05-14T06:45:16;11.60;99.90
12771;DHT22;6449;47.666;9.160;2023-05-14T06:50:10;11.50;99.90
12771;DHT22;6449;47.666;9.160;2023-05-14T06:55:05;11.50;99.90
12771;DHT22;6449;47.666;9.160;2023-05-14T06:59:59;11.50;99.90
12771;DHT22;6449;47.666;9.160;2023-05-14T07:04:54;11.40;99.90
12771;DHT22;6449;47.666;9.160;2023-05-14T07:09:47;11.50;99.90
12771;DHT22;6449;47.666;9.160;2023-05-14T07:14:43;11.50;99.90
12771;DHT22;6449;47.666;9.160;2023-05-14T07:19:37;11.60;99.90
12771;DHT22;6449;47.666;9.160;2023-05-14T07:24:30;11.70;99.90
12771;DHT22;6449;47.666;9.160;2023-05-14T07:29:23;11.80;99.90
12771;DHT22;6449;47.666;9.160;2023-05-14T07:34:18;11.90;99.90
12771;DHT22;6449;47.666;9.160;2023-05-14T07:39:12;11.70;99.90
12771;DHT22;6449;47.666;9.160;2023-05-14T07:44:05;11.70;99.90
12771;DHT22;6449;47.666;9.160;2023-05-14T07:48:58;11.70;99.90
12771;DHT22;6449;47.666;9.160;2023-05-14T07:53:53;11.80;99.90
12771;DHT22;6449;47.666;9.160;2023-05-14T07:58:47;12.00;99.90
12771;DHT22;6449;47.666;9.160;2023-05-14T08:03:40;12.20;99.90
12771;DHT22;6449;47.666;9.160;2023-05-14T08:08:34;12.40;99.90
12771;DHT22;6449;47.666;9.160;2023-05-14T08:13:28;12.40;99.90
12771;DHT22;6449;47.666;9.160;2023-05-14T08:18:22;12.40;99.90
12771;DHT22;6449;47.666;9.160;2023-05-14T08:23:16;12.40;99.90
12771;DHT22;6449;47.666;9.160;2023-05-14T08:28:09;12.30;99.90
12771;DHT22;6449;47.666;9.160;2023-05-14T08:33:04;12.10;99.90
12771;DHT22;6449;47.666;9.160;2023-05-14T08:37:57;12.20;99.90
12771;DHT22;6449;47.666;9.160;2023-05-14T08:42:51;12.20;99.90
12771;DHT22;6449;47.666;9.160;2023-05-14T08:47:47;12.20;99.90
12771;DHT22;6449;47.666;9.160;2023-05-14T08:52:43;12.40;99.90
12771;DHT22;6449;47.666;9.160;2023-05-14T08:57:37;12.50;99.90
12771;DHT22;6449;47.666;9.160;2023-05-14T09:02:30;12.40;99.90
12771;DHT22;6449;47.666;9.160;2023-05-14T09:07:25;12.70;99.90
12771;DHT22;6449;47.666;9.160;2023-05-14T09:12:20;12.70;99.90
12771;DHT22;6449;47.666;9.160;2023-05-14T09:17:14;12.80;99.90
12771;DHT22;6449;47.666;9.160;2023-05-14T09:22:10;12.80;99.90
12771;DHT22;6449;47.666;9.160;2023-05-14T09:27:05;12.60;99.90
12771;DHT22;6449;47.666;9.160;2023-05-14T09:32:01;12.60;99.90
12771;DHT22;6449;47.666;9.160;2023-05-14T09:36:59;12.60;99.90
12771;DHT22;6449;47.666;9.160;2023-05-14T09:41:53;12.70;99.90
12771;DHT22;6449;47.666;9.160;2023-05-14T09:46:48;12.70;99.90
12771;DHT22;6449;47.666;9.160;2023-05-14T09:51:43;12.60;99.90
12771;DHT22;6449;47.666;9.160;2023-05-14T09:56:37;12.70;99.90
12771;DHT22;6449;47.666;9.160;2023-05-14T10:01:31;13.00;99.90
12771;DHT22;6449;47.666;9.160;2023-05-14T10:06:27;13.10;99.90
12771;DHT22;6449;47.666;9.160;2023-05-14T10:11:30;13.50;99.90
12771;DHT22;6449;47.666;9.160;2023-05-14T10:16:27;13.60;99.90
12771;DHT22;6449;47.666;9.160;2023-05-14T10:21:25;13.60;99.90
12771;DHT22;6449;47.666;9.160;2023-05-14T10:26:22;13.60;99.90
12771;DHT22;6449;47.666;9.160;2023-05-14T10:31:24;13.80;99.90
12771;DHT22;6449;47.666;9.160;2023-05-14T10:37:08;14.00;99.90
12771;DHT22;6449;47.666;9.160;2023-05-14T10:42:03;14.30;99.90
12771;DHT22;6449;47.666;9.160;2023-05-14T10:46:59;14.30;99.90
12771;DHT22;6449;47.666;9.160;2023-05-14T10:51:53;14.10;99.90
12771;DHT22;6449;47.666;9.160;2023-05-14T10:56:48;14.00;99.90
12771;DHT22;6449;47.666;9.160;2023-05-14T11:01:42;14.30;99.90
12771;DHT22;6449;47.666;9.160;2023-05-14T11:06:38;14.50;99.90
12771;DHT22;6449;47.666;9.160;2023-05-14T11:11:32;14.30;99.90
12771;DHT22;6449;47.666;9.160;2023-05-14T11:16:27;14.20;99.90
12771;DHT22;6449;47.666;9.160;2023-05-14T11:21:21;14.00;99.90
12771;DHT22;6449;47.666;9.160;2023-05-14T11:26:16;13.90;99.90
12771;DHT22;6449;47.666;9.160;2023-05-14T11:31:12;13.90;99.90
12771;DHT22;6449;47.666;9.160;2023-05-14T11:36:06;14.00;99.90
12771;DHT22;6449;47.666;9.160;2023-05-14T11:41:02;14.20;99.90
12771;DHT22;6449;47.666;9.160;2023-05-14T11:45:57;14.50;99.90
12771;DHT22;6449;47.666;9.160;2023-05-14T11:50:51;14.60;99.90
12771;DHT22;6449;47.666;9.160;2023-05-14T11:55:45;14.70;99.90
12771;DHT22;6449;47.666;9.160;2023-05-14T12:00:39;14.80;99.90
12771;DHT22;6449;47.666;9.160;2023-05-14T12:05:36;14.80;99.90
12771;DHT22;6449;47.666;9.160;2023-05-14T12:10:40;14.90;99.90
12771;DHT22;6449;47.666;9.160;2023-05-14T12:15:34;15.00;99.90
12771;DHT22;6449;47.666;9.160;2023-05-14T12:20:28;15.10;99.90
12771;DHT22;6449;47.666;9.160;2023-05-14T12:25:24;15.10;99.90
12771;DHT22;6449;47.666;9.160;2023-05-14T12:30:18;15.10;99.90
12771;DHT22;6449;47.666;9.160;2023-05-14T12:35:13;14.80;99.90
12771;DHT22;6449;47.666;9.160;2023-05-14T12:40:07;14.50;99.90
12771;DHT22;6449;47.666;9.160;2023-05-14T12:45:02;14.50;99.90
12771;DHT22;6449;47.666;9.160;2023-05-14T12:50:00;14.90;99.90
12771;DHT22;6449;47.666;9.160;2023-05-14T12:54:55;15.20;99.90
12771;DHT22;6449;47.666;9.160;2023-05-14T12:59:49;15.20;99.90
12771;DHT22;6449;47.666;9.160;2023-05-14T13:04:44;15.10;99.90
12771;DHT22;6449;47.666;9.160;2023-05-14T13:09:37;14.90;99.90
12771;DHT22;6449;47.666;9.160;2023-05-14T13:14:31;14.90;99.90
12771;DHT22;6449;47.666;9.160;2023-05-14T13:19:24;14.90;99.90
12771;DHT22;6449;47.666;9.160;2023-05-14T13:24:19;14.80;99.90
12771;DHT22;6449;47.666;9.160;2023-05-14T13:29:12;14.90;99.90
12771;DHT22;6449;47.666;9.160;2023-05-14T13:34:06;15.20;99.90
12771;DHT22;6449;47.666;9.160;2023-05-14T13:39:00;15.40;99.90
12771;DHT22;6449;47.666;9.160;2023-05-14T13:43:55;15.30;99.90
12771;DHT22;6449;47.666;9.160;2023-05-14T13:48:48;15.20;99.90
12771;DHT22;6449;47.666;9.160;2023-05-14T13:53:42;15.20;99.90
12771;DHT22;6449;47.666;9.160;2023-05-14T13:58:36;15.10;99.90
12771;DHT22;6449;47.666;9.160;2023-05-14T14:03:31;15.00;99.90
12771;DHT22;6449;47.666;9.160;2023-05-14T14:08:24;15.20;99.90
12771;DHT22;6449;47.666;9.160;2023-05-14T14:13:18;15.40;99.90
12771;DHT22;6449;47.666;9.160;2023-05-14T14:18:11;15.30;99.90
12771;DHT22;6449;47.666;9.160;2023-05-14T14:23:06;15.40;99.90
12771;DHT22;6449;47.666;9.160;2023-05-14T14:27:59;15.30;99.90
12771;DHT22;6449;47.666;9.160;2023-05-14T14:32:53;15.30;99.90
12771;DHT22;6449;47.666;9.160;2023-05-14T14:37:46;15.20;99.90
12771;DHT22;6449;47.666;9.160;2023-05-14T14:42:45;15.20;99.90
12771;DHT22;6449;47.666;9.160;2023-05-14T14:47:43;15.30;99.90
12771;DHT22;6449;47.666;9.160;2023-05-14T14:52:41;15.40;99.90
12771;DHT22;6449;47.666;9.160;2023-05-14T14:57:36;15.50;99.90
12771;DHT22;6449;47.666;9.160;2023-05-14T15:02:31;15.40;99.90
12771;DHT22;6449;47.666;9.160;2023-05-14T15:07:25;15.40;99.90
12771;DHT22;6449;47.666;9.160;2023-05-14T15:12:20;15.30;99.90
12771;DHT22;6449;47.666;9.160;2023-05-14T15:17:13;15.20;99.90
12771;DHT22;6449;47.666;9.160;2023-05-14T15:22:08;15.10;99.90
12771;DHT22;6449;47.666;9.160;2023-05-14T15:27:01;15.10;99.90
12771;DHT22;6449;47.666;9.160;2023-05-14T15:31:55;15.00;99.90
12771;DHT22;6449;47.666;9.160;2023-05-14T15:36:48;14.90;99.90
12771;DHT22;6449;47.666;9.160;2023-05-14T15:41:43;15.00;99.90
12771;DHT22;6449;47.666;9.160;2023-05-14T15:46:37;15.00;99.90
12771;DHT22;6449;47.666;9.160;2023-05-14T15:51:30;14.90;99.90
12771;DHT22;6449;47.666;9.160;2023-05-14T15:56:26;14.90;99.90
12771;DHT22;6449;47.666;9.160;2023-05-14T16:01:21;14.70;99.90
12771;DHT22;6449;47.666;9.160;2023-05-14T16:06:15;14.70;99.90
12771;DHT22;6449;47.666;9.160;2023-05-14T16:11:11;14.60;99.90
12771;DHT22;6449;47.666;9.160;2023-05-14T16:16:04;14.40;99.90
12771;DHT22;6449;47.666;9.160;2023-05-14T16:20:59;14.10;99.90
12771;DHT22;6449;47.666;9.160;2023-05-14T16:25:54;13.20;99.90
12771;DHT22;6449;47.666;9.160;2023-05-14T16:30:48;12.80;99.90
12771;DHT22;6449;47.666;9.160;2023-05-14T16:35:42;12.60;99.90
12771;DHT22;6449;47.666;9.160;2023-05-14T16:40:37;12.50;99.90
12771;DHT22;6449;47.666;9.160;2023-05-14T16:45:30;12.70;99.90
12771;DHT22;6449;47.666;9.160;2023-05-14T16:50:25;12.90;99.90
12771;DHT22;6449;47.666;9.160;2023-05-14T16:55:19;12.90;99.90
12771;DHT22;6449;47.666;9.160;2023-05-14T17:00:14;12.80;99.90
12771;DHT22;6449;47.666;9.160;2023-05-14T17:05:08;12.70;99.90
12771;DHT22;6449;47.666;9.160;2023-05-14T17:10:02;12.70;99.90
12771;DHT22;6449;47.666;9.160;2023-05-14T17:14:56;12.70;99.90
12771;DHT22;6449;47.666;9.160;2023-05-14T17:19:51;12.60;99.90
12771;DHT22;6449;47.666;9.160;2023-05-14T17:24:56;12.40;99.90
12771;DHT22;6449;47.666;9.160;2023-05-14T17:29:49;12.10;99.90
12771;DHT22;6449;47.666;9.160;2023-05-14T17:34:43;12.20;99.90
12771;DHT22;6449;47.666;9.160;2023-05-14T17:39:40;12.20;99.90
12771;DHT22;6449;47.666;9.160;2023-05-14T17:44:34;12.50;99.90
12771;DHT22;6449;47.666;9.160;2023-05-14T17:49:31;12.50;99.90
12771;DHT22;6449;47.666;9.160;2023-05-14T17:54:25;12.50;99.90
12771;DHT22;6449;47.666;9.160;2023-05-14T17:59:20;12.30;99.90
12771;DHT22;6449;47.666;9.160;2023-05-14T18:04:15;12.20;99.90
12771;DHT22;6449;47.666;9.160;2023-05-14T18:09:08;12.30;99.90
12771;DHT22;6449;47.666;9.160;2023-05-14T18:14:05;12.20;99.90
12771;DHT22;6449;47.666;9.160;2023-05-14T18:19:00;12.10;99.90
12771;DHT22;6449;47.666;9.160;2023-05-14T18:23:54;12.10;99.90
12771;DHT22;6449;47.666;9.160;2023-05-14T18:28:47;12.20;99.90
12771;DHT22;6449;47.666;9.160;2023-05-14T18:33:41;12.20;99.90
12771;DHT22;6449;47.666;9.160;2023-05-14T18:38:35;12.20;99.90
12771;DHT22;6449;47.666;9.160;2023-05-14T18:43:29;12.00;99.90
12771;DHT22;6449;47.666;9.160;2023-05-14T18:53:44;12.00;99.90
12771;DHT22;6449;47.666;9.160;2023-05-14T18:58:41;12.00;99.90
12771;DHT22;6449;47.666;9.160;2023-05-14T19:03:34;12.10;99.90
12771;DHT22;6449;47.666;9.160;2023-05-14T19:08:28;12.10;99.90
12771;DHT22;6449;47.666;9.160;2023-05-14T19:13:22;12.00;99.90
12771;DHT22;6449;47.666;9.160;2023-05-14T19:18:18;11.90;99.90
12771;DHT22;6449;47.666;9.160;2023-05-14T19:23:22;12.00;99.90
12771;DHT22;6449;47.666;9.160;2023-05-14T19:28:18;11.80;99.90
12771;DHT22;6449;47.666;9.160;2023-05-14T19:33:13;11.70;99.90
12771;DHT22;6449;47.666;9.160;2023-05-14T19:38:09;11.70;99.90
12771;DHT22;6449;47.666;9.160;2023-05-14T19:43:02;11.70;99.90
12771;DHT22;6449;47.666;9.160;2023-05-14T19:48:00;11.90;99.90
12771;DHT22;6449;47.666;9.160;2023-05-14T19:52:55;11.80;99.90
12771;DHT22;6449;47.666;9.160;2023-05-14T19:57:48;11.90;99.90
12771;DHT22;6449;47.666;9.160;2023-05-14T20:02:41;11.80;99.90
12771;DHT22;6449;47.666;9.160;2023-05-14T20:07:35;11.90;99.90
12771;DHT22;6449;47.666;9.160;2023-05-14T20:12:32;12.00;99.90
12771;DHT22;6449;47.666;9.160;2023-05-14T20:17:25;11.90;99.90
12771;DHT22;6449;47.666;9.160;2023-05-14T20:22:19;11.80;99.90
12771;DHT22;6449;47.666;9.160;2023-05-14T20:27:12;11.90;99.90
12771;DHT22;6449;47.666;9.160;2023-05-14T20:32:07;11.80;99.90
12771;DHT22;6449;47.666;9.160;2023-05-14T20:37:00;11.70;99.90
12771;DHT22;6449;47.666;9.160;2023-05-14T20:41:55;11.70;99.90
12771;DHT22;6449;47.666;9.160;2023-05-14T20:46:49;11.60;99.90
12771;DHT22;6449;47.666;9.160;2023-05-14T20:51:43;11.60;99.90
12771;DHT22;6449;47.666;9.160;2023-05-14T20:56:37;11.60;99.90
12771;DHT22;6449;47.666;9.160;2023-05-14T21:01:30;11.60;99.90
12771;DHT22;6449;47.666;9.160;2023-05-14T21:06:23;11.60;99.90
12771;DHT22;6449;47.666;9.160;2023-05-14T21:11:18;11.60;99.90
12771;DHT22;6449;47.666;9.160;2023-05-14T21:16:13;11.70;99.90
12771;DHT22;6449;47.666;9.160;2023-05-14T21:21:07;11.60;99.90
12771;DHT22;6449;47.666;9.160;2023-05-14T21:26:00;11.50;99.90
12771;DHT22;6449;47.666;9.160;2023-05-14T21:30:55;11.40;99.90
12771;DHT22;6449;47.666;9.160;2023-05-14T21:35:48;11.50;99.90
12771;DHT22;6449;47.666;9.160;2023-05-14T21:40:42;11.60;99.90
12771;DHT22;6449;47.666;9.160;2023-05-14T21:45:35;11.40;99.90
12771;DHT22;6449;47.666;9.160;2023-05-14T21:50:30;11.40;99.90
12771;DHT22;6449;47.666;9.160;2023-05-14T21:55:23;11.40;99.90
12771;DHT22;6449;47.666;9.160;2023-05-14T22:00:19;11.40;99.90
12771;DHT22;6449;47.666;9.160;2023-05-14T22:05:14;11.40;99.90
12771;DHT22;6449;47.666;9.160;2023-05-14T22:10:10;11.30;99.90
12771;DHT22;6449;47.666;9.160;2023-05-14T22:15:06;11.30;99.90
12771;DHT22;6449;47.666;9.160;2023-05-14T22:20:00;11.30;99.90
12771;DHT22;6449;47.666;9.160;2023-05-14T22:24:54;11.30;99.90
12771;DHT22;6449;47.666;9.160;2023-05-14T22:29:49;11.20;99.90
12771;DHT22;6449;47.666;9.160;2023-05-14T22:34:42;11.30;99.90
12771;DHT22;6449;47.666;9.160;2023-05-14T22:39:35;11.40;99.90
12771;DHT22;6449;47.666;9.160;2023-05-14T22:44:29;11.40;99.90
12771;DHT22;6449;47.666;9.160;2023-05-14T22:49:23;11.40;99.90
12771;DHT22;6449;47.666;9.160;2023-05-14T22:54:17;11.40;99.90
12771;DHT22;6449;47.666;9.160;2023-05-14T22:59:10;11.40;99.90
12771;DHT22;6449;47.666;9.160;2023-05-14T23:04:03;11.40;99.90
12771;DHT22;6449;47.666;9.160;2023-05-14T23:08:58;11.50;99.90
12771;DHT22;6449;47.666;9.160;2023-05-14T23:13:51;11.40;99.90
12771;DHT22;6449;47.666;9.160;2023-05-14T23:18:45;11.40;99.90
12771;DHT22;6449;47.666;9.160;2023-05-14T23:23:38;11.40;99.90
12771;DHT22;6449;47.666;9.160;2023-05-14T23:28:33;11.40;99.90
12771;DHT22;6449;47.666;9.160;2023-05-14T23:33:26;11.40;99.90
12771;DHT22;6449;47.666;9.160;2023-05-14T23:38:20;11.30;99.90
12771;DHT22;6449;47.666;9.160;2023-05-14T23:43:13;11.40;99.90
12771;DHT22;6449;47.666;9.160;2023-05-14T23:48:08;11.30;99.90
12771;DHT22;6449;47.666;9.160;2023-05-14T23:53:01;11.30;99.90
12771;DHT22;6449;47.666;9.160;2023-05-14T23:57:54;11.30;99.90
